EGVN Airport Information

Runway Information
Runway 07 Length 10007 ft width 184 ft
Elevation 284 ft Threshold ft Heading 74
Runway 25 Length 10007 ft Width 184 ft
Elevation 249 ft Threshold ft Heading 254
Airport Frequencies
Type APP Name APP Frequency 127.25 MHZ
Type ATIS Name ATIS Frequency 259 MHZ
Type CAC Name CAC Frequency 124.275 MHZ
Type GND Name GND Frequency 121.725 MHZ
Type MISC Name ZONE Frequency 119 MHZ
Type OPS Name OPS Frequency 130.075 MHZ
Type RDR Name DIR Frequency 133.755 MHZ
Type TWR Name TWR Frequency 123.72 MHZ
Type APP Name Frequency 297.8 MHZ
Type APP Name Frequency 362.3 MHZ
Type GRN Name Frequency 240.55 MHZ
Airport Navaids
Type NDB Name Brize Norton Frequency 386 KHZ
Type TACAN Name Brize Norton Frequency 111900 KHZ
Airport Weather Information & NOTAM
ADDS - METARS form results

(2213 UTC 05 October 2022)
Data provider http://aviationweather.gov/metar/data/
 
METAR text: EGVN 052150Z 24005KT CAVOK 11/06 Q1020 NOSIG RMK BLU BLU
Conditions at: EGVN (BRIZE NORTON RAF, GB) observed 2150 UTC 05 October 2022
Temperature: 11.0°C (52°F)
Dewpoint: 6.0°C (43°F) [RH = 71%]
Pressure (altimeter): 30.12 inches Hg (1020.0 mb)
Winds: from the WSW (240 degrees) at 6 MPH (5 knots; 2.6 m/s)
Visibility: 6 or more miles (10+ km)
Ceiling: ceiling and visibility are OK
Clouds: unknown
Weather: no significant weather observed at this time

METAR text: EGVN 052120Z 24004KT CAVOK 10/06 Q1020 NOSIG RMK BLU BLU
Conditions at: EGVN (BRIZE NORTON RAF, GB) observed 2120 UTC 05 October 2022
Temperature: 10.0°C (50°F)
Dewpoint: 6.0°C (43°F) [RH = 76%]
Pressure (altimeter): 30.12 inches Hg (1020.0 mb)
Winds: from the WSW (240 degrees) at 5 MPH (4 knots; 2.1 m/s)
Visibility: 6 or more miles (10+ km)
Ceiling: ceiling and visibility are OK
Clouds: unknown
Weather: no significant weather observed at this time

Forecast for: EGVN (BRIZE NORTON RAF, GB)
Text: TAF EGVN 051917Z 0521/0621 25006KT 9999 FEW035
Forecast period: 2100 UTC 05 October 2022 to 2100 UTC 06 October 2022
Forecast type: FROM: standard forecast or significant change
Winds: from the WSW (250 degrees) at 7 MPH (6 knots; 3.1 m/s)
Visibility: 6 or more miles (10+ km)
Ceiling: at least 12,000 feet AGL
Clouds: few clouds at 3500 feet AGL
Weather: no significant weather forecast for this period